createdAt,value
2023-03-10T00:00:42.736Z,23.67
2023-03-10T00:03:09.113Z,23.67
2023-03-10T00:05:35.541Z,23.67
2023-03-10T00:08:01.875Z,23.66
2023-03-10T00:10:28.208Z,23.65
2023-03-10T00:12:54.601Z,23.64
2023-03-10T00:15:20.936Z,23.65
2023-03-10T00:17:47.315Z,23.64
2023-03-10T00:20:13.672Z,23.62
2023-03-10T00:22:40.065Z,23.63
2023-03-10T00:25:06.406Z,23.62
2023-03-10T00:27:32.793Z,23.61
2023-03-10T00:29:59.136Z,23.61
2023-03-10T00:32:25.571Z,23.61
2023-03-10T00:34:51.876Z,23.59
2023-03-10T00:37:18.262Z,23.51
2023-03-10T00:39:44.605Z,23.59
2023-03-10T00:42:10.991Z,23.57
2023-03-10T00:44:38.564Z,23.57
2023-03-10T00:47:03.716Z,23.57
2023-03-10T00:49:30.075Z,23.57
2023-03-10T00:51:56.464Z,23.57
2023-03-10T00:54:22.795Z,23.56
2023-03-10T00:56:49.187Z,23.56
2023-03-10T00:59:15.522Z,23.55
2023-03-10T01:01:41.976Z,23.55
2023-03-10T01:04:08.310Z,23.54
2023-03-10T01:06:34.654Z,23.53
2023-03-10T01:09:00.993Z,23.53
2023-03-10T01:11:27.393Z,23.52
2023-03-10T01:13:53.729Z,23.52
2023-03-10T01:16:20.180Z,23.51
2023-03-10T01:18:46.471Z,23.52
2023-03-10T01:21:12.863Z,23.51
2023-03-10T01:23:39.192Z,23.49
2023-03-10T01:26:05.641Z,23.49
2023-03-10T01:28:31.993Z,23.48
2023-03-10T01:30:58.462Z,23.47
2023-03-10T01:33:24.769Z,23.47
2023-03-10T01:35:51.175Z,23.48
2023-03-10T01:38:17.553Z,23.45
2023-03-10T01:40:43.902Z,23.46
2023-03-10T01:43:10.256Z,23.47
2023-03-10T01:45:36.642Z,23.46
2023-03-10T01:48:02.982Z,23.44
2023-03-10T01:50:29.360Z,23.44
2023-03-10T01:52:55.703Z,23.44
2023-03-10T01:55:22.096Z,23.43
2023-03-10T01:57:48.429Z,23.43
2023-03-10T02:00:14.817Z,23.42
2023-03-10T02:02:41.170Z,23.42
2023-03-10T02:05:07.571Z,23.41
2023-03-10T02:07:33.903Z,23.41
2023-03-10T02:10:00.305Z,23.41
2023-03-10T02:12:26.655Z,23.39
2023-03-10T02:14:54.252Z,23.39
2023-03-10T02:17:19.381Z,23.40
2023-03-10T02:19:45.774Z,23.38
2023-03-10T02:22:12.120Z,23.38
2023-03-10T02:24:38.507Z,23.38
2023-03-10T02:27:04.862Z,23.37
2023-03-10T02:29:31.243Z,23.36
2023-03-10T02:32:00.093Z,23.36
2023-03-10T02:34:26.421Z,23.35
2023-03-10T02:36:52.765Z,23.35
2023-03-10T02:39:19.161Z,23.34
2023-03-10T02:41:45.808Z,23.34
2023-03-10T02:44:11.921Z,23.33
2023-03-10T02:46:38.259Z,23.34
2023-03-10T02:49:04.656Z,23.32
2023-03-10T02:54:16.321Z,23.32
2023-03-10T02:56:42.635Z,23.31
2023-03-10T02:59:09.022Z,23.31
2023-03-10T03:01:35.481Z,23.30
2023-03-10T03:04:01.816Z,23.29
2023-03-10T03:06:28.095Z,23.29
2023-03-10T03:08:54.485Z,23.27
2023-03-10T03:11:20.828Z,23.25
2023-03-10T03:13:47.232Z,23.25
2023-03-10T03:16:13.625Z,23.23
2023-03-10T03:18:39.963Z,23.25
2023-03-10T03:21:06.308Z,23.25
2023-03-10T03:23:32.712Z,23.23
2023-03-10T03:25:59.048Z,23.22
2023-03-10T03:28:25.431Z,23.22
2023-03-10T03:30:51.793Z,23.22
2023-03-10T03:33:18.169Z,23.22
2023-03-10T03:35:44.560Z,23.23
2023-03-10T03:38:10.935Z,23.20
2023-03-10T03:40:37.311Z,23.19
2023-03-10T03:43:03.683Z,23.22
2023-03-10T03:45:30.033Z,23.21
2023-03-10T03:47:56.417Z,23.19
2023-03-10T03:50:22.766Z,23.19
2023-03-10T03:52:49.144Z,23.20
2023-03-10T03:55:15.487Z,23.20
2023-03-10T03:57:41.872Z,23.19
2023-03-10T04:00:08.219Z,23.19
2023-03-10T04:02:34.637Z,23.16
2023-03-10T04:05:00.978Z,23.17
2023-03-10T04:07:27.384Z,23.16
2023-03-10T04:09:53.733Z,23.15
2023-03-10T04:12:20.109Z,23.16
2023-03-10T04:14:46.459Z,23.15
2023-03-10T04:17:12.864Z,23.15
2023-03-10T04:19:39.214Z,23.15
2023-03-10T04:22:05.597Z,23.15
2023-03-10T04:24:31.936Z,23.14
2023-03-10T04:26:58.355Z,23.13
2023-03-10T04:29:25.928Z,23.12
2023-03-10T04:32:04.852Z,23.13
2023-03-10T04:34:17.457Z,23.12
2023-03-10T04:36:43.845Z,23.12
2023-03-10T04:39:10.194Z,23.11
2023-03-10T04:41:36.590Z,23.12
2023-03-10T04:44:02.949Z,23.10
2023-03-10T04:46:29.401Z,23.12
2023-03-10T04:48:55.713Z,23.13
2023-03-10T04:51:22.104Z,23.13
2023-03-10T04:53:48.450Z,23.14
2023-03-10T04:56:14.883Z,23.14
2023-03-10T04:58:41.214Z,23.14
2023-03-10T05:01:07.640Z,23.15
2023-03-10T05:03:33.946Z,23.16
2023-03-10T05:06:00.366Z,23.15
2023-03-10T05:08:26.673Z,23.15
2023-03-10T05:10:53.063Z,23.16
2023-03-10T05:13:19.428Z,23.16
2023-03-10T05:15:45.860Z,23.16
2023-03-10T05:18:12.181Z,23.15
2023-03-10T05:20:38.557Z,23.17
2023-03-10T05:23:04.898Z,23.19
2023-03-10T05:25:31.290Z,23.21
2023-03-10T05:27:57.646Z,23.23
2023-03-10T05:30:25.729Z,23.26
2023-03-10T05:32:50.423Z,23.34
2023-03-10T05:35:16.840Z,23.36
2023-03-10T05:37:43.178Z,23.45
2023-03-10T05:40:09.563Z,23.44
2023-03-10T05:42:35.938Z,23.40
2023-03-10T05:45:02.311Z,23.43
2023-03-10T05:47:28.648Z,23.41
2023-03-10T05:49:55.081Z,23.41
2023-03-10T05:52:21.402Z,23.51
2023-03-10T05:54:47.791Z,23.43
2023-03-10T05:57:14.245Z,23.48
2023-03-10T05:59:40.509Z,23.54
2023-03-10T06:02:06.883Z,23.48
2023-03-10T06:04:33.224Z,23.54
2023-03-10T06:06:59.588Z,23.66
2023-03-10T06:09:25.967Z,23.63
2023-03-10T06:11:52.353Z,23.58
2023-03-10T06:14:18.700Z,23.56
2023-03-10T06:16:45.160Z,23.56
2023-03-10T06:19:11.426Z,23.57
2023-03-10T06:21:37.818Z,23.60
2023-03-10T06:24:04.219Z,23.61
2023-03-10T06:26:30.557Z,23.66
2023-03-10T06:28:56.898Z,23.59
2023-03-10T06:31:23.402Z,23.59
2023-03-10T06:33:49.625Z,23.66
2023-03-10T06:36:16.101Z,23.70
2023-03-10T06:38:42.364Z,23.73
2023-03-10T06:41:08.755Z,23.72
2023-03-10T06:43:35.089Z,23.72
2023-03-10T06:46:01.501Z,23.71
2023-03-10T06:48:27.808Z,23.71
2023-03-10T06:50:54.235Z,23.76
2023-03-10T06:53:20.577Z,23.73
2023-03-10T06:55:46.960Z,23.75
2023-03-10T06:58:13.309Z,23.75
2023-03-10T07:00:39.711Z,23.77
2023-03-10T07:03:06.101Z,23.78
2023-03-10T07:05:32.456Z,24.05
2023-03-10T07:07:58.805Z,24.01
2023-03-10T07:10:25.189Z,23.84
2023-03-10T07:12:51.557Z,23.84
2023-03-10T07:15:17.936Z,24.00
2023-03-10T07:17:44.292Z,24.05
2023-03-10T07:20:10.678Z,23.94
2023-03-10T07:22:37.014Z,23.98
2023-03-10T07:25:03.411Z,24.01
2023-03-10T07:27:29.758Z,24.05
2023-03-10T07:29:56.146Z,23.99
2023-03-10T07:32:22.518Z,23.97
2023-03-10T07:34:48.893Z,23.99
2023-03-10T07:37:15.243Z,24.00
2023-03-10T07:39:41.635Z,23.98
2023-03-10T07:42:07.983Z,23.91
2023-03-10T07:44:34.376Z,23.96
2023-03-10T07:47:00.752Z,23.96
2023-03-10T07:49:27.147Z,23.98
2023-03-10T07:51:53.487Z,23.94
2023-03-10T07:54:19.872Z,23.94
2023-03-10T07:56:46.223Z,23.95
2023-03-10T07:59:12.633Z,23.99
2023-03-10T08:01:39.140Z,23.95
2023-03-10T08:04:05.583Z,23.94
2023-03-10T08:06:31.783Z,23.94
2023-03-10T08:08:58.209Z,23.96
2023-03-10T08:11:24.526Z,23.95
2023-03-10T08:13:50.968Z,23.95
2023-03-10T08:16:17.265Z,23.95
2023-03-10T08:18:43.626Z,23.98
2023-03-10T08:21:09.996Z,23.98
2023-03-10T08:23:36.860Z,23.95
2023-03-10T08:26:02.727Z,23.94
2023-03-10T08:28:29.110Z,23.95
2023-03-10T08:31:04.008Z,23.97
2023-03-10T08:33:21.843Z,24.00
2023-03-10T08:35:48.204Z,24.00
2023-03-10T08:38:14.599Z,23.87
2023-03-10T08:40:41.043Z,24.01
2023-03-10T08:43:07.447Z,24.04
2023-03-10T08:45:33.827Z,24.08
2023-03-10T08:48:00.206Z,24.08
2023-03-10T08:50:26.602Z,24.09
2023-03-10T08:52:54.340Z,24.10
2023-03-10T08:55:19.288Z,24.16
2023-03-10T08:57:45.702Z,24.16
2023-03-10T09:00:16.073Z,24.40
2023-03-10T09:02:38.460Z,24.63
2023-03-10T09:05:04.763Z,24.63
2023-03-10T09:07:31.165Z,24.74
2023-03-10T09:09:57.502Z,24.74
2023-03-10T09:12:23.892Z,24.74
2023-03-10T09:14:50.228Z,24.79
2023-03-10T09:17:16.624Z,24.76
2023-03-10T09:19:42.968Z,24.75
2023-03-10T09:22:09.353Z,24.75
2023-03-10T09:24:35.686Z,24.75
2023-03-10T09:27:02.061Z,24.61
2023-03-10T09:29:42.190Z,24.75
2023-03-10T09:31:54.867Z,24.79
2023-03-10T09:34:21.148Z,24.82
2023-03-10T09:36:47.541Z,24.82
2023-03-10T09:39:14.018Z,24.84
2023-03-10T09:41:40.372Z,24.84
2023-03-10T09:44:06.745Z,24.95
2023-03-10T09:46:33.145Z,24.92
2023-03-10T09:48:59.485Z,24.99
2023-03-10T09:51:25.874Z,25.01
2023-03-10T09:53:52.219Z,24.93
2023-03-10T09:56:18.604Z,24.93
2023-03-10T09:58:44.953Z,24.96
2023-03-10T10:01:11.332Z,24.98
2023-03-10T10:03:51.421Z,25.05
2023-03-10T10:06:04.073Z,25.28
2023-03-10T10:08:30.481Z,25.26
2023-03-10T10:10:56.853Z,25.23
2023-03-10T10:13:25.611Z,25.29
2023-03-10T10:15:57.154Z,24.97
2023-03-10T10:18:20.915Z,25.21
2023-03-10T10:20:44.903Z,25.28
2023-03-10T10:23:11.226Z,25.40
2023-03-10T10:25:37.615Z,25.22
2023-03-10T10:28:03.947Z,25.46
2023-03-10T10:30:30.414Z,25.41
2023-03-10T10:32:56.721Z,25.45
2023-03-10T10:35:23.044Z,25.58
2023-03-10T10:37:49.385Z,25.43
2023-03-10T10:40:15.770Z,25.22
2023-03-10T10:42:42.118Z,25.26
2023-03-10T10:45:08.536Z,25.22
2023-03-10T10:47:34.881Z,25.25
2023-03-10T10:50:01.266Z,25.29
2023-03-10T10:52:27.664Z,25.25
2023-03-10T10:54:54.038Z,25.23
2023-03-10T10:57:21.353Z,25.28
2023-03-10T10:59:46.751Z,25.12
2023-03-10T11:02:13.109Z,25.27
2023-03-10T11:04:39.472Z,25.19
2023-03-10T11:07:05.857Z,25.14
2023-03-10T11:09:32.246Z,25.06
2023-03-10T11:11:58.600Z,25.02
2023-03-10T11:14:24.981Z,25.04
2023-03-10T11:16:51.354Z,25.02
2023-03-10T11:19:17.721Z,24.97
2023-03-10T11:21:44.079Z,24.97
2023-03-10T11:24:10.472Z,24.79
2023-03-10T11:26:36.818Z,24.93
2023-03-10T11:29:03.229Z,24.92
2023-03-10T11:31:29.672Z,24.93
2023-03-10T11:33:55.945Z,24.92
2023-03-10T11:36:22.286Z,24.89
2023-03-10T11:38:48.681Z,24.89
2023-03-10T11:41:15.056Z,24.87
2023-03-10T11:43:41.442Z,24.87
2023-03-10T11:46:07.811Z,24.85
2023-03-10T11:48:34.161Z,24.84
2023-03-10T11:51:00.513Z,24.72
2023-03-10T11:53:26.901Z,24.84
2023-03-10T11:55:53.256Z,24.83
2023-03-10T11:58:19.696Z,24.87
2023-03-10T12:00:46.024Z,24.86
2023-03-10T12:03:12.459Z,24.86
2023-03-10T12:05:38.803Z,24.89
2023-03-10T12:08:05.189Z,24.86
2023-03-10T12:10:31.613Z,24.86
2023-03-10T12:12:58.027Z,24.84
2023-03-10T12:15:24.439Z,24.87
2023-03-10T12:17:50.826Z,24.69
2023-03-10T12:20:17.283Z,24.87
2023-03-10T12:22:43.549Z,24.90
2023-03-10T12:25:09.896Z,24.89
2023-03-10T12:27:36.285Z,24.96
2023-03-10T12:30:02.628Z,24.91
2023-03-10T12:32:29.076Z,24.83
2023-03-10T12:34:55.393Z,24.80
2023-03-10T12:37:21.780Z,24.81
2023-03-10T12:39:48.147Z,24.79
2023-03-10T12:42:14.518Z,24.79
2023-03-10T12:44:40.920Z,24.78
2023-03-10T12:47:07.360Z,24.77
2023-03-10T12:49:33.671Z,24.76
2023-03-10T12:52:00.034Z,24.78
2023-03-10T12:54:26.382Z,24.81
2023-03-10T12:56:52.742Z,24.83
2023-03-10T12:59:19.102Z,24.71
2023-03-10T13:01:55.144Z,24.91
2023-03-10T13:04:11.847Z,24.90
2023-03-10T13:06:38.224Z,24.95
2023-03-10T13:09:04.610Z,24.98
2023-03-10T13:11:30.996Z,24.96
2023-03-10T13:13:57.388Z,24.96
2023-03-10T13:16:23.792Z,24.93
2023-03-10T13:18:50.129Z,24.87
2023-03-10T13:21:16.513Z,24.90
2023-03-10T13:23:42.855Z,24.94
2023-03-10T13:26:09.246Z,24.99
2023-03-10T13:28:35.633Z,25.02
2023-03-10T13:31:02.016Z,25.03
2023-03-10T13:33:28.346Z,24.93
2023-03-10T13:35:54.776Z,24.96
2023-03-10T13:38:21.085Z,24.93
2023-03-10T13:40:47.476Z,24.92
2023-03-10T13:43:14.914Z,24.91
2023-03-10T13:45:41.428Z,24.92
2023-03-10T13:48:07.698Z,24.88
2023-03-10T13:50:34.059Z,24.83
2023-03-10T13:53:00.424Z,24.83
2023-03-10T13:55:26.848Z,24.85
2023-03-10T13:57:53.147Z,24.80
2023-03-10T14:00:19.529Z,24.77
2023-03-10T14:02:45.873Z,24.76
2023-03-10T14:05:12.272Z,24.73
2023-03-10T14:07:38.615Z,24.72
2023-03-10T14:10:05.022Z,24.73
2023-03-10T14:12:31.364Z,24.67
2023-03-10T14:14:57.771Z,24.67
2023-03-10T14:17:24.114Z,24.68
2023-03-10T14:19:50.532Z,24.61
2023-03-10T14:22:16.898Z,24.62
2023-03-10T14:24:43.278Z,24.61
2023-03-10T14:27:10.689Z,24.60
2023-03-10T14:29:37.107Z,24.63
2023-03-10T14:32:03.461Z,24.64
2023-03-10T14:34:29.852Z,24.66
2023-03-10T14:36:56.206Z,24.63
2023-03-10T14:39:22.593Z,24.66
2023-03-10T14:41:49.006Z,24.65
2023-03-10T14:44:15.383Z,24.66
2023-03-10T14:46:41.828Z,24.68
2023-03-10T14:49:08.124Z,24.75
2023-03-10T14:51:36.460Z,24.87
2023-03-10T14:54:00.858Z,24.82
2023-03-10T14:56:27.162Z,24.74
2023-03-10T14:58:53.536Z,24.81
2023-03-10T15:01:19.892Z,24.75
2023-03-10T15:03:46.260Z,24.73
2023-03-10T15:06:12.602Z,24.69
2023-03-10T15:08:38.980Z,24.68
2023-03-10T15:11:05.319Z,24.64
2023-03-10T15:13:31.718Z,24.61
2023-03-10T15:15:58.103Z,24.60
2023-03-10T15:18:24.456Z,24.58
2023-03-10T15:20:50.788Z,24.56
2023-03-10T15:23:19.303Z,24.55
2023-03-10T15:25:45.708Z,24.56
2023-03-10T15:28:09.873Z,24.55
2023-03-10T15:30:36.220Z,24.32
2023-03-10T15:33:02.598Z,24.50
2023-03-10T15:35:28.936Z,24.48
2023-03-10T15:37:55.308Z,24.50
2023-03-10T15:40:21.656Z,24.54
2023-03-10T15:42:48.054Z,24.51
2023-03-10T15:45:14.380Z,24.51
2023-03-10T15:47:40.773Z,24.47
2023-03-10T15:50:07.116Z,24.50
2023-03-10T15:52:33.499Z,24.55
2023-03-10T15:54:59.865Z,24.46
2023-03-10T15:57:26.242Z,24.46
2023-03-10T15:59:52.586Z,24.53
2023-03-10T16:02:19.000Z,24.56
2023-03-10T16:04:45.384Z,24.56
2023-03-10T16:07:11.724Z,24.52
2023-03-10T16:09:38.065Z,24.51
2023-03-10T16:12:04.760Z,24.53
2023-03-10T16:14:31.106Z,24.54
2023-03-10T16:16:57.487Z,24.52
2023-03-10T16:19:23.814Z,24.52
2023-03-10T16:21:50.224Z,24.51
2023-03-10T16:24:16.587Z,24.51
2023-03-10T16:26:44.720Z,24.51
2023-03-10T16:29:09.319Z,24.51
2023-03-10T16:31:35.676Z,24.49
2023-03-10T16:34:02.041Z,24.52
2023-03-10T16:36:28.387Z,24.50
2023-03-10T16:38:54.775Z,24.42
2023-03-10T16:41:21.131Z,24.42
2023-03-10T16:43:47.514Z,24.52
2023-03-10T16:46:13.969Z,24.53
2023-03-10T16:48:40.313Z,24.47
2023-03-10T16:51:06.645Z,24.48
2023-03-10T16:53:33.040Z,24.44
2023-03-10T16:55:59.373Z,24.47
2023-03-10T16:58:25.788Z,24.47
2023-03-10T17:00:52.128Z,24.46
2023-03-10T17:03:18.556Z,24.43
2023-03-10T17:05:44.854Z,24.43
2023-03-10T17:08:11.227Z,24.45
2023-03-10T17:10:37.563Z,24.46
2023-03-10T17:13:03.949Z,24.43
2023-03-10T17:15:30.291Z,24.38
2023-03-10T17:17:56.747Z,24.43
2023-03-10T17:20:23.087Z,24.43
2023-03-10T17:22:49.500Z,24.34
2023-03-10T17:25:15.839Z,24.22
2023-03-10T17:27:43.288Z,24.38
2023-03-10T17:30:08.566Z,24.39
2023-03-10T17:32:34.981Z,24.37
2023-03-10T17:35:02.241Z,24.40
2023-03-10T17:37:27.663Z,24.36
2023-03-10T17:39:54.014Z,24.39
2023-03-10T17:42:20.397Z,24.39
2023-03-10T17:44:46.745Z,24.29
2023-03-10T17:47:13.119Z,24.29
2023-03-10T17:49:39.461Z,24.29
2023-03-10T17:52:05.841Z,24.37
2023-03-10T17:54:32.184Z,24.37
2023-03-10T17:56:58.559Z,24.37
2023-03-10T17:59:24.903Z,24.35
2023-03-10T18:01:51.334Z,24.35
2023-03-10T18:04:17.666Z,24.25
2023-03-10T18:06:44.047Z,24.29
2023-03-10T18:09:10.391Z,24.29
2023-03-10T18:11:36.816Z,24.31
2023-03-10T18:14:04.002Z,24.28
2023-03-10T18:16:29.600Z,24.25
2023-03-10T18:18:55.939Z,24.27
2023-03-10T18:21:22.391Z,24.27
2023-03-10T18:23:48.743Z,24.22
2023-03-10T18:26:15.115Z,24.23
2023-03-10T18:28:41.492Z,24.23
2023-03-10T18:31:07.978Z,24.22
2023-03-10T18:33:34.319Z,24.18
2023-03-10T18:36:00.667Z,24.18
2023-03-10T18:38:27.065Z,24.22
2023-03-10T18:40:53.444Z,24.18
2023-03-10T18:43:19.777Z,24.13
2023-03-10T18:45:46.162Z,24.21
2023-03-10T18:48:12.528Z,24.12
2023-03-10T18:50:38.891Z,24.18
2023-03-10T18:53:05.261Z,24.12
2023-03-10T18:55:31.641Z,24.17
2023-03-10T18:57:58.016Z,24.17
2023-03-10T19:00:24.378Z,24.08
2023-03-10T19:02:50.777Z,24.14
2023-03-10T19:05:17.136Z,24.12
2023-03-10T19:07:43.468Z,24.03
2023-03-10T19:10:09.854Z,24.03
2023-03-10T19:12:36.222Z,24.12
2023-03-10T19:15:02.592Z,24.12
2023-03-10T19:17:28.933Z,24.09
2023-03-10T19:19:55.325Z,24.09
2023-03-10T19:22:21.659Z,24.11
2023-03-10T19:24:48.051Z,24.12
2023-03-10T19:27:14.392Z,24.03
2023-03-10T19:29:40.775Z,24.09
2023-03-10T19:32:07.115Z,24.10
2023-03-10T19:34:33.498Z,23.99
2023-03-10T19:36:59.841Z,24.03
2023-03-10T19:39:26.221Z,24.07
2023-03-10T19:41:52.554Z,24.07
2023-03-10T19:44:19.012Z,24.06
2023-03-10T19:46:45.393Z,24.02
2023-03-10T19:49:11.740Z,24.07
2023-03-10T19:51:38.126Z,24.07
2023-03-10T19:54:04.501Z,24.05
2023-03-10T19:56:30.835Z,24.05
2023-03-10T19:58:57.230Z,23.98
2023-03-10T20:01:23.547Z,24.05
2023-03-10T20:03:49.961Z,24.05
2023-03-10T20:06:16.252Z,24.06
2023-03-10T20:08:42.632Z,24.07
2023-03-10T20:11:08.979Z,24.06
2023-03-10T20:13:35.385Z,24.07
2023-03-10T20:16:01.717Z,23.98
2023-03-10T20:18:28.126Z,23.94
2023-03-10T20:20:54.457Z,24.00
2023-03-10T20:23:20.841Z,23.97
2023-03-10T20:25:47.169Z,23.95
2023-03-10T20:28:13.545Z,23.96
2023-03-10T20:30:39.880Z,23.95
2023-03-10T20:33:06.268Z,23.93
2023-03-10T20:35:32.652Z,23.93
2023-03-10T20:37:58.972Z,23.93
2023-03-10T20:40:25.352Z,23.93
2023-03-10T20:42:52.668Z,23.91
2023-03-10T20:45:18.068Z,23.88
2023-03-10T20:47:44.453Z,23.85
2023-03-10T20:50:10.777Z,23.85
2023-03-10T20:52:37.154Z,23.85
2023-03-10T20:55:03.486Z,23.84
2023-03-10T20:57:29.930Z,23.84
2023-03-10T20:59:56.271Z,23.83
2023-03-10T21:02:22.673Z,23.83
2023-03-10T21:04:49.041Z,23.81
2023-03-10T21:07:15.420Z,23.80
2023-03-10T21:09:41.759Z,23.79
2023-03-10T21:12:08.151Z,23.79
2023-03-10T21:14:34.486Z,23.79
2023-03-10T21:17:00.914Z,23.78
2023-03-10T21:19:27.231Z,23.77
2023-03-10T21:21:53.624Z,23.76
2023-03-10T21:24:19.960Z,23.76
2023-03-10T21:26:46.360Z,23.75
2023-03-10T21:29:12.690Z,23.74
2023-03-10T21:31:39.071Z,23.75
2023-03-10T21:34:05.410Z,23.73
2023-03-10T21:36:31.804Z,23.73
2023-03-10T21:38:58.172Z,23.72
2023-03-10T21:41:24.561Z,23.71
2023-03-10T21:43:50.900Z,23.70
2023-03-10T21:46:17.319Z,23.62
2023-03-10T21:48:43.649Z,23.62
2023-03-10T21:51:10.031Z,23.69
2023-03-10T21:53:36.434Z,23.69
2023-03-10T21:56:02.787Z,23.68
2023-03-10T21:58:29.188Z,23.66
2023-03-10T22:00:56.342Z,23.67
2023-03-10T22:03:21.910Z,23.65
2023-03-10T22:05:48.278Z,23.57
2023-03-10T22:08:14.620Z,23.66
2023-03-10T22:10:41.006Z,23.64
2023-03-10T22:13:07.367Z,23.67
2023-03-10T22:15:33.749Z,23.64
2023-03-10T22:18:00.125Z,23.62
2023-03-10T22:20:26.510Z,23.59
2023-03-10T22:22:52.844Z,23.61
2023-03-10T22:25:19.240Z,23.60
2023-03-10T22:27:45.569Z,23.60
2023-03-10T22:30:11.976Z,23.60
2023-03-10T22:32:38.355Z,23.59
2023-03-10T22:35:04.694Z,23.58
2023-03-10T22:37:31.037Z,23.57
2023-03-10T22:39:57.445Z,23.56
2023-03-10T22:42:23.782Z,23.57
2023-03-10T22:44:50.191Z,23.56
2023-03-10T22:47:16.520Z,23.56
2023-03-10T22:49:42.898Z,23.54
2023-03-10T22:52:09.235Z,23.54
2023-03-10T22:54:35.624Z,23.52
2023-03-10T22:57:01.966Z,23.53
2023-03-10T22:59:28.349Z,23.52
2023-03-10T23:01:54.789Z,23.51
2023-03-10T23:04:21.074Z,23.50
2023-03-10T23:06:47.418Z,23.51
2023-03-10T23:09:13.824Z,23.48
2023-03-10T23:11:40.164Z,23.47
2023-03-10T23:14:06.547Z,23.47
2023-03-10T23:16:33.264Z,23.47
2023-03-10T23:18:59.267Z,23.47
2023-03-10T23:21:25.611Z,23.46
2023-03-10T23:23:51.996Z,23.47
2023-03-10T23:26:18.329Z,23.47
2023-03-10T23:28:44.708Z,23.40
2023-03-10T23:31:11.092Z,23.40
2023-03-10T23:33:37.444Z,23.44
2023-03-10T23:36:03.843Z,23.46
2023-03-10T23:38:30.190Z,23.45
2023-03-10T23:40:56.523Z,23.45
2023-03-10T23:43:22.898Z,23.44
2023-03-10T23:45:49.271Z,23.43
2023-03-10T23:48:15.623Z,23.43
2023-03-10T23:50:41.986Z,23.43
2023-03-10T23:53:08.361Z,23.42
2023-03-10T23:55:34.712Z,23.42
2023-03-10T23:58:01.127Z,23.42
